X  Κλείσε Στοιχεία αεροπορικών μετεωρολογικών δεδομένων METAR     LGRX Patras Araxos Agamemnon Airport
Θερμοκρασία
37°F Θερμοκρασία
37°F Σημείο δρόσου
100% Υγρασία



Άνεμος
0 MPH
0 KM/H
0 M/S
0 KTS



Άπνοια
Β
Τρέχουσες Συνθήκες

Κυρίως Διάσπαρτα Νέφη Κυρίως Διάσπαρτα Νέφη
Πίεση 1011.92 (hPa) - 29.88 (inHg)
Ορατότητα 6.2 (μίλια) - 10 (km)
Aεροδρόμιο
Κωδικός Αεροδρομίου LGRX

Τοποθεσία: Patras Araxos Agamemnon Airport
Απόσταση: 108 (mi)

Metar:
LGRX 050050Z 00000KT 9999 SCT020 03/03 Q1012 RMK FEW080 BLU

ώρα: 05-02-2023 02:50 EET